createdAt,value
2019-04-28T00:01:36.162Z,33.20
2019-04-28T00:04:05.470Z,34.17
2019-04-28T00:06:34.730Z,35.77
2019-04-28T00:09:06.186Z,36.00
2019-04-28T00:11:35.148Z,34.23
2019-04-28T00:14:04.278Z,34.47
2019-04-28T00:16:35.107Z,35.83
2019-04-28T00:19:04.415Z,37.17
2019-04-28T00:21:55.623Z,38.37
2019-04-28T00:24:41.905Z,36.70
2019-04-28T00:27:13.678Z,38.83
2019-04-28T00:29:46.031Z,38.43
2019-04-28T00:32:13.486Z,40.73
2019-04-28T00:34:42.466Z,36.60
2019-04-28T00:37:32.512Z,38.73
2019-04-28T00:40:01.496Z,36.50
2019-04-28T00:42:31.521Z,38.40
2019-04-28T00:45:01.663Z,38.30
2019-04-28T00:47:31.211Z,38.37
2019-04-28T00:50:02.106Z,38.90
2019-04-28T00:52:31.998Z,36.50
2019-04-28T00:55:03.098Z,35.57
2019-04-28T00:57:32.425Z,37.00
2019-04-28T01:00:02.651Z,36.90
2019-04-28T01:02:42.334Z,35.07
2019-04-28T01:05:11.567Z,36.27
2019-04-28T01:07:41.317Z,38.70
2019-04-28T01:10:12.697Z,39.43
2019-04-28T01:12:41.654Z,38.97
2019-04-28T01:15:29.833Z,36.67
2019-04-28T01:18:10.422Z,37.07
2019-04-28T01:20:40.700Z,36.47
2019-04-28T01:23:10.379Z,38.40
2019-04-28T01:25:41.171Z,36.83
2019-04-28T01:28:11.616Z,36.37
2019-04-28T01:30:59.878Z,38.23
2019-04-28T01:33:51.717Z,39.63
2019-04-28T01:36:23.617Z,39.30
2019-04-28T01:38:52.558Z,38.13
2019-04-28T01:41:21.627Z,39.47
2019-04-28T01:43:56.721Z,36.13
2019-04-28T01:46:29.821Z,38.90
2019-04-28T01:48:59.889Z,36.80
2019-04-28T01:51:30.638Z,37.97
2019-04-28T01:54:00.160Z,37.47
2019-04-28T01:56:30.422Z,41.43
2019-04-28T01:59:02.853Z,38.60
2019-04-28T02:01:31.835Z,38.83
2019-04-28T02:04:02.612Z,39.10
2019-04-28T02:06:31.751Z,38.23
2019-04-28T02:09:03.713Z,37.03
2019-04-28T02:11:34.284Z,38.77
2019-04-28T02:14:03.296Z,36.63
2019-04-28T02:16:32.258Z,37.53
2019-04-28T02:19:02.431Z,35.57
2019-04-28T02:21:47.347Z,32.37
2019-04-28T02:24:30.759Z,32.20
2019-04-28T02:27:00.903Z,31.77
2019-04-28T02:29:30.271Z,30.70
2019-04-28T02:32:02.099Z,31.17
2019-04-28T02:34:31.034Z,30.43
2019-04-28T02:37:01.529Z,30.27
2019-04-28T02:39:31.447Z,29.80
2019-04-28T02:42:01.441Z,31.40
2019-04-28T02:44:35.053Z,31.03
2019-04-28T02:47:02.965Z,30.53
2019-04-28T02:49:40.586Z,32.30
2019-04-28T02:52:30.647Z,31.77
2019-04-28T02:55:03.327Z,31.90
2019-04-28T02:57:32.206Z,32.03
2019-04-28T03:00:01.668Z,31.90
2019-04-28T03:02:31.880Z,31.33
2019-04-28T03:05:01.305Z,30.30
2019-04-28T03:07:31.338Z,30.57
2019-04-28T03:10:03.762Z,29.30
2019-04-28T03:12:33.254Z,29.53
2019-04-28T03:15:02.262Z,29.90
2019-04-28T03:17:32.163Z,29.47
2019-04-28T03:20:01.668Z,29.60
2019-04-28T03:22:31.304Z,29.53
2019-04-28T03:25:04.282Z,29.80
2019-04-28T03:27:52.606Z,29.20
2019-04-28T03:30:43.428Z,28.77
2019-04-28T03:33:18.121Z,26.47
2019-04-28T03:35:44.238Z,27.23
2019-04-28T03:38:13.574Z,27.60
2019-04-28T03:40:42.671Z,28.00
2019-04-28T03:43:14.838Z,26.87
2019-04-28T03:45:53.041Z,26.20
2019-04-28T03:48:23.574Z,25.73
2019-04-28T03:50:52.735Z,25.60
2019-04-28T03:53:23.534Z,24.33
2019-04-28T03:55:52.714Z,24.40
2019-04-28T03:58:24.282Z,25.10
2019-04-28T04:00:57.005Z,23.20
2019-04-28T04:03:25.945Z,23.23
2019-04-28T04:05:54.908Z,20.97
2019-04-28T04:08:24.312Z,19.03
2019-04-28T04:11:00.479Z,17.43
2019-04-28T04:13:51.198Z,17.37
2019-04-28T04:16:40.579Z,16.23
2019-04-28T04:19:10.716Z,15.20
2019-04-28T04:21:40.777Z,13.97
2019-04-28T04:24:11.709Z,13.90
2019-04-28T04:26:41.097Z,13.93
2019-04-28T04:29:12.904Z,13.33
2019-04-28T04:31:44.243Z,11.63
2019-04-28T04:34:13.434Z,10.50
2019-04-28T04:36:43.767Z,9.80
2019-04-28T04:39:12.740Z,9.30
2019-04-28T04:41:43.731Z,8.23
2019-04-28T04:44:12.495Z,8.07
2019-04-28T04:46:41.775Z,8.03
2019-04-28T04:49:10.824Z,7.73
2019-04-28T04:51:43.305Z,7.90
2019-04-28T04:54:10.853Z,7.97
2019-04-28T04:56:40.212Z,7.80
2019-04-28T04:59:11.044Z,7.40
2019-04-28T05:01:50.309Z,7.43
2019-04-28T05:04:36.956Z,7.53
2019-04-28T05:07:05.967Z,7.97
2019-04-28T05:09:34.991Z,8.70
2019-04-28T05:12:03.966Z,8.33
2019-04-28T05:14:32.971Z,7.77
2019-04-28T05:17:05.765Z,8.17
2019-04-28T05:19:34.761Z,8.40
2019-04-28T05:22:04.216Z,7.43
2019-04-28T05:25:03.243Z,7.27
2019-04-28T05:27:32.622Z,6.60
2019-04-28T05:30:05.446Z,7.07
2019-04-28T05:32:44.687Z,6.47
2019-04-28T05:35:06.873Z,6.70
2019-04-28T05:37:36.141Z,6.70
2019-04-28T05:40:06.850Z,6.67
2019-04-28T05:42:35.949Z,5.87
2019-04-28T05:45:06.170Z,5.67
2019-04-28T05:47:36.838Z,4.90
2019-04-28T05:50:24.930Z,4.97
2019-04-28T05:53:04.175Z,5.17
2019-04-28T05:55:50.156Z,5.13
2019-04-28T05:58:27.003Z,4.10
2019-04-28T06:01:17.386Z,4.10
2019-04-28T06:03:46.784Z,4.23
2019-04-28T06:06:15.869Z,4.20
2019-04-28T06:08:51.923Z,4.03
2019-04-28T06:11:31.693Z,4.47
2019-04-28T06:14:00.918Z,4.00
2019-04-28T06:16:30.398Z,4.20
2019-04-28T06:19:01.132Z,4.87
2019-04-28T06:21:30.362Z,4.00
2019-04-28T06:23:59.384Z,4.27
2019-04-28T06:26:28.405Z,4.30
2019-04-28T06:28:57.494Z,4.23
2019-04-28T06:31:26.746Z,4.27
2019-04-28T06:33:55.865Z,3.83
2019-04-28T06:36:25.137Z,3.57
2019-04-28T06:38:55.956Z,3.80
2019-04-28T06:41:25.072Z,3.70
2019-04-28T06:43:54.082Z,3.53
2019-04-28T06:46:23.459Z,3.30
2019-04-28T06:48:54.272Z,5.03
2019-04-28T06:51:24.615Z,4.20
2019-04-28T06:53:54.583Z,3.83
2019-04-28T06:56:23.603Z,4.10
2019-04-28T06:58:58.795Z,4.13
2019-04-28T07:01:23.364Z,4.23
2019-04-28T07:03:52.382Z,4.13
2019-04-28T07:06:21.583Z,4.20
2019-04-28T07:08:50.663Z,4.00
2019-04-28T07:11:20.761Z,3.90
2019-04-28T07:13:49.811Z,3.87
2019-04-28T07:16:18.732Z,3.90
2019-04-28T07:18:47.816Z,4.10
2019-04-28T07:21:29.634Z,3.87
2019-04-28T07:23:59.795Z,3.83
2019-04-28T07:26:29.153Z,4.20
2019-04-28T07:28:58.208Z,3.60
2019-04-28T07:31:27.183Z,3.50
2019-04-28T07:33:59.198Z,3.53
2019-04-28T07:36:28.268Z,4.17
2019-04-28T07:38:57.329Z,4.00
2019-04-28T07:41:27.538Z,3.50
2019-04-28T07:43:56.613Z,4.03
2019-04-28T07:46:25.619Z,3.97
2019-04-28T07:48:56.009Z,4.10
2019-04-28T07:51:27.912Z,4.20
2019-04-28T07:54:03.305Z,3.93
2019-04-28T07:56:32.076Z,4.00
2019-04-28T07:59:02.535Z,3.80
2019-04-28T08:01:31.544Z,4.10
2019-04-28T08:04:00.583Z,4.30
2019-04-28T08:06:30.845Z,4.40
2019-04-28T08:09:02.465Z,4.07
2019-04-28T08:11:31.701Z,4.57
2019-04-28T08:14:00.961Z,4.57
2019-04-28T08:16:29.932Z,4.70
2019-04-28T08:18:59.137Z,4.77
2019-04-28T08:21:28.257Z,4.47
2019-04-28T08:24:00.779Z,4.50
2019-04-28T08:26:36.116Z,4.30
2019-04-28T08:29:03.891Z,4.83
2019-04-28T08:31:43.000Z,4.60
2019-04-28T08:34:11.987Z,4.33
2019-04-28T08:36:40.892Z,4.23
2019-04-28T08:39:09.965Z,3.83
2019-04-28T08:41:40.459Z,3.77
2019-04-28T08:44:10.744Z,4.10
2019-04-28T08:46:39.772Z,4.47
2019-04-28T08:49:08.884Z,4.50
2019-04-28T08:51:38.019Z,3.87
2019-04-28T08:54:07.255Z,4.40
2019-04-28T08:56:36.238Z,4.13
2019-04-28T08:59:05.831Z,4.00
2019-04-28T09:01:34.898Z,4.40
2019-04-28T09:04:14.856Z,3.87
2019-04-28T09:06:34.692Z,4.10
2019-04-28T09:09:05.409Z,3.93
2019-04-28T09:11:37.634Z,3.73
2019-04-28T09:14:07.227Z,3.80
2019-04-28T09:16:36.247Z,3.60
2019-04-28T09:19:05.478Z,4.17
2019-04-28T09:21:34.537Z,3.67
2019-04-28T09:24:04.907Z,3.80
2019-04-28T09:26:37.051Z,3.77
2019-04-28T09:29:06.259Z,3.67
2019-04-28T09:31:35.440Z,3.70
2019-04-28T09:34:06.503Z,3.83
2019-04-28T09:36:38.960Z,3.67
2019-04-28T09:39:09.342Z,3.27
2019-04-28T09:41:43.378Z,3.70
2019-04-28T09:44:18.194Z,3.10
2019-04-28T09:46:47.869Z,3.17
2019-04-28T09:49:16.763Z,3.80
2019-04-28T09:51:45.776Z,3.67
2019-04-28T09:54:14.940Z,3.67
2019-04-28T09:56:56.581Z,3.63
2019-04-28T09:59:19.397Z,3.30
2019-04-28T10:01:49.979Z,2.83
2019-04-28T10:04:18.896Z,3.00
2019-04-28T10:06:47.849Z,2.70
2019-04-28T10:09:16.824Z,2.73
2019-04-28T10:11:45.826Z,2.73
2019-04-28T10:14:16.235Z,3.30
2019-04-28T10:16:46.318Z,2.57
2019-04-28T10:19:15.462Z,2.67
2019-04-28T10:21:44.765Z,2.97
2019-04-28T10:24:13.805Z,2.83
2019-04-28T10:26:42.764Z,2.90
2019-04-28T10:29:11.853Z,3.57
2019-04-28T10:31:43.537Z,3.20
2019-04-28T10:34:12.450Z,3.20
2019-04-28T10:36:41.711Z,3.20
2019-04-28T10:39:27.741Z,3.87
2019-04-28T10:41:56.760Z,3.73
2019-04-28T10:44:27.031Z,3.57
2019-04-28T10:46:56.391Z,3.53
2019-04-28T10:49:25.454Z,3.80
2019-04-28T10:51:59.632Z,3.80
2019-04-28T10:54:25.067Z,3.50
2019-04-28T10:56:54.541Z,3.40
2019-04-28T10:59:23.838Z,3.27
2019-04-28T11:01:52.881Z,3.20
2019-04-28T11:04:40.159Z,3.63
2019-04-28T11:07:10.588Z,3.03
2019-04-28T11:09:43.951Z,3.50
2019-04-28T11:12:19.369Z,3.10
2019-04-28T11:14:48.442Z,3.07
2019-04-28T11:17:18.539Z,3.10
2019-04-28T11:19:48.995Z,3.20
2019-04-28T11:22:18.065Z,3.50
2019-04-28T11:24:47.042Z,4.00
2019-04-28T11:27:16.237Z,3.40
2019-04-28T11:29:46.808Z,3.60
2019-04-28T11:32:16.816Z,3.40
2019-04-28T11:35:07.490Z,3.43
2019-04-28T11:37:39.785Z,3.40
2019-04-28T11:40:08.894Z,3.90
2019-04-28T11:42:37.992Z,3.53
2019-04-28T11:45:07.526Z,3.10
2019-04-28T11:47:36.550Z,3.13
2019-04-28T11:50:05.810Z,2.93
2019-04-28T11:52:36.382Z,2.80
2019-04-28T11:55:05.472Z,3.40
2019-04-28T11:57:34.746Z,3.03
2019-04-28T12:00:06.041Z,3.30
2019-04-28T12:02:35.039Z,3.00
2019-04-28T12:05:04.192Z,3.80
2019-04-28T12:07:37.547Z,4.10
2019-04-28T12:10:17.156Z,3.90
2019-04-28T12:13:06.523Z,3.63
2019-04-28T12:15:57.843Z,2.67
2019-04-28T12:18:51.565Z,2.87
2019-04-28T12:21:24.599Z,2.80
2019-04-28T12:23:53.616Z,2.70
2019-04-28T12:26:25.716Z,3.00
2019-04-28T12:28:54.906Z,2.90
2019-04-28T12:31:25.572Z,3.07
2019-04-28T12:33:54.756Z,3.03
2019-04-28T12:36:23.711Z,2.63
2019-04-28T12:38:52.696Z,2.90
2019-04-28T12:41:21.650Z,2.87
2019-04-28T12:43:50.781Z,3.13
2019-04-28T12:46:19.902Z,3.03
2019-04-28T12:48:51.997Z,2.40
2019-04-28T12:51:21.317Z,2.90
2019-04-28T12:53:52.786Z,2.37
2019-04-28T12:56:22.816Z,2.90
2019-04-28T12:58:58.689Z,2.60
2019-04-28T13:01:36.060Z,2.77
2019-04-28T13:04:19.156Z,2.80
2019-04-28T13:07:05.222Z,2.90
2019-04-28T13:09:34.419Z,2.60
2019-04-28T13:12:03.464Z,2.60
2019-04-28T13:14:33.573Z,2.87
2019-04-28T13:17:02.712Z,2.60
2019-04-28T13:19:31.733Z,2.60
2019-04-28T13:22:05.556Z,2.47
2019-04-28T13:24:42.282Z,2.57
2019-04-28T13:27:12.830Z,2.47
2019-04-28T13:29:42.177Z,2.60
2019-04-28T13:32:12.671Z,2.27
2019-04-28T13:34:43.361Z,2.47
2019-04-28T13:37:15.120Z,3.40
2019-04-28T13:39:49.884Z,2.80
2019-04-28T13:42:19.035Z,2.40
2019-04-28T13:44:54.650Z,2.63
2019-04-28T13:47:23.755Z,2.40
2019-04-28T13:50:04.690Z,2.13
2019-04-28T13:52:35.374Z,1.87
2019-04-28T13:55:22.871Z,2.00
2019-04-28T13:57:53.093Z,2.10
2019-04-28T14:00:28.457Z,1.70
2019-04-28T14:03:07.384Z,2.50
2019-04-28T14:05:57.008Z,2.43
2019-04-28T14:08:26.095Z,2.20
2019-04-28T14:10:55.171Z,2.40
2019-04-28T14:13:26.154Z,2.40
2019-04-28T14:15:59.688Z,2.60
2019-04-28T14:18:32.834Z,2.20
2019-04-28T14:21:01.841Z,2.70
2019-04-28T14:23:30.946Z,2.47
2019-04-28T14:25:59.895Z,2.90
2019-04-28T14:28:28.968Z,3.03
2019-04-28T14:30:58.246Z,3.07
2019-04-28T14:33:27.226Z,3.33
2019-04-28T14:35:58.359Z,4.43
2019-04-28T14:38:27.462Z,3.60
2019-04-28T14:40:56.490Z,4.00
2019-04-28T14:43:25.569Z,4.17
2019-04-28T14:45:54.580Z,5.90
2019-04-28T14:48:24.559Z,4.93
2019-04-28T14:50:53.543Z,4.63
2019-04-28T14:53:22.537Z,4.60
2019-04-28T14:55:51.510Z,4.60
2019-04-28T14:58:23.042Z,3.60
2019-04-28T15:00:56.880Z,3.70
2019-04-28T15:03:27.511Z,3.60
2019-04-28T15:06:21.305Z,3.57
2019-04-28T15:09:07.860Z,3.77
2019-04-28T15:11:44.384Z,3.87
2019-04-28T15:14:14.618Z,4.47
2019-04-28T15:16:43.647Z,4.87
2019-04-28T15:19:14.148Z,5.47
2019-04-28T15:21:44.162Z,4.93
2019-04-28T15:24:13.291Z,4.90
2019-04-28T15:26:42.250Z,5.50
2019-04-28T15:29:11.188Z,5.00
2019-04-28T15:31:40.119Z,5.53
2019-04-28T15:34:10.600Z,5.90
2019-04-28T15:36:39.671Z,6.07
2019-04-28T15:39:12.426Z,6.20
2019-04-28T15:41:42.408Z,6.40
2019-04-28T15:44:11.388Z,6.60
2019-04-28T15:46:40.396Z,6.93
2019-04-28T15:49:09.754Z,6.40
2019-04-28T15:51:39.817Z,6.57
2019-04-28T15:54:08.918Z,7.07
2019-04-28T15:56:44.292Z,6.10
2019-04-28T15:59:13.234Z,7.03
2019-04-28T16:01:42.315Z,8.50
2019-04-28T16:04:11.503Z,7.87
2019-04-28T16:06:40.474Z,7.17
2019-04-28T16:09:13.547Z,6.87
2019-04-28T16:11:43.008Z,6.93
2019-04-28T16:14:11.993Z,6.80
2019-04-28T16:16:41.073Z,7.47
2019-04-28T16:19:10.248Z,8.30
2019-04-28T16:21:39.142Z,8.23
2019-04-28T16:24:08.403Z,8.23
2019-04-28T16:26:37.552Z,7.63
2019-04-28T16:29:07.850Z,9.60
2019-04-28T16:31:36.837Z,9.53
2019-04-28T16:34:05.865Z,11.17
2019-04-28T16:36:35.078Z,13.43
2019-04-28T16:39:07.230Z,14.73
2019-04-28T16:41:39.485Z,13.97
2019-04-28T16:44:14.048Z,14.87
2019-04-28T16:46:43.138Z,14.60
2019-04-28T16:49:12.200Z,14.30
2019-04-28T16:51:41.266Z,11.40
2019-04-28T16:54:11.255Z,12.07
2019-04-28T16:57:02.319Z,11.27
2019-04-28T16:59:53.190Z,12.33
2019-04-28T17:02:49.884Z,11.93
2019-04-28T17:05:18.947Z,13.23
2019-04-28T17:07:53.217Z,13.10
2019-04-28T17:10:18.746Z,14.70
2019-04-28T17:12:49.091Z,15.63
2019-04-28T17:15:18.479Z,13.50
2019-04-28T17:17:48.843Z,15.33
2019-04-28T17:20:17.903Z,17.43
2019-04-28T17:22:47.238Z,13.17
2019-04-28T17:25:16.317Z,13.17
2019-04-28T17:27:45.493Z,10.83
2019-04-28T17:30:16.471Z,11.67
2019-04-28T17:32:49.901Z,11.10
2019-04-28T17:35:19.224Z,13.13
2019-04-28T17:37:48.282Z,14.13
2019-04-28T17:40:18.445Z,12.70
2019-04-28T17:42:47.920Z,16.30
2019-04-28T17:45:18.358Z,14.80
2019-04-28T17:47:47.880Z,12.40
2019-04-28T17:50:23.853Z,12.37
2019-04-28T17:52:52.980Z,13.00
2019-04-28T17:55:22.098Z,12.80
2019-04-28T17:57:52.710Z,11.10
2019-04-28T18:00:43.888Z,11.63
2019-04-28T18:03:41.736Z,11.73
2019-04-28T18:06:18.448Z,11.57
2019-04-28T18:08:47.759Z,11.27
2019-04-28T18:11:18.625Z,11.00
2019-04-28T18:13:49.653Z,11.07
2019-04-28T18:16:37.837Z,11.20
2019-04-28T18:19:10.838Z,12.00
2019-04-28T18:21:39.863Z,12.00
2019-04-28T18:24:09.121Z,12.60
2019-04-28T18:26:38.189Z,13.90
2019-04-28T18:29:07.417Z,12.20
2019-04-28T18:31:57.737Z,12.10
2019-04-28T18:34:56.411Z,12.70
2019-04-28T18:37:45.108Z,12.87
2019-04-28T18:40:27.980Z,12.73
2019-04-28T18:43:14.606Z,13.97
2019-04-28T18:45:47.260Z,12.67
2019-04-28T18:48:16.336Z,14.03
2019-04-28T18:50:45.541Z,13.53
2019-04-28T18:53:14.650Z,14.20
2019-04-28T18:55:43.706Z,14.00
2019-04-28T18:58:12.791Z,14.37
2019-04-28T19:00:49.086Z,15.27
2019-04-28T19:03:18.422Z,14.03
2019-04-28T19:05:49.001Z,15.47
2019-04-28T19:08:48.579Z,14.47
2019-04-28T19:11:41.430Z,15.40
2019-04-28T19:14:23.363Z,15.57
2019-04-28T19:17:19.612Z,16.33
2019-04-28T19:19:48.981Z,17.00
2019-04-28T19:22:18.195Z,17.47
2019-04-28T19:24:47.358Z,17.90
2019-04-28T19:27:16.966Z,19.87
2019-04-28T19:29:46.324Z,21.53
2019-04-28T19:32:15.556Z,21.67
2019-04-28T19:34:44.608Z,20.17
2019-04-28T19:37:16.100Z,18.57
2019-04-28T19:39:45.444Z,21.20
2019-04-28T19:42:14.894Z,20.63
2019-04-28T19:44:48.335Z,19.00
2019-04-28T19:47:17.860Z,19.20
2019-04-28T19:49:47.032Z,18.10
2019-04-28T19:52:16.375Z,17.93
2019-04-28T19:55:03.242Z,17.17
2019-04-28T19:57:50.018Z,16.93
2019-04-28T20:00:25.527Z,17.33
2019-04-28T20:02:54.397Z,16.43
2019-04-28T20:05:23.402Z,16.53
2019-04-28T20:07:52.423Z,16.40
2019-04-28T20:10:21.357Z,16.23
2019-04-28T20:12:50.469Z,16.07
2019-04-28T20:15:19.513Z,16.53
2019-04-28T20:17:48.480Z,15.10
2019-04-28T20:20:17.491Z,14.50
2019-04-28T20:22:46.939Z,14.20
2019-04-28T20:25:16.049Z,14.40
2019-04-28T20:27:45.077Z,13.57
2019-04-28T20:30:14.568Z,14.43
2019-04-28T20:32:45.829Z,14.77
2019-04-28T20:35:17.156Z,14.23
2019-04-28T20:37:52.286Z,14.20
2019-04-28T20:40:27.458Z,14.73
2019-04-28T20:43:04.928Z,12.50
2019-04-28T20:45:33.937Z,14.03
2019-04-28T20:48:03.039Z,12.43
2019-04-28T20:50:32.046Z,12.60
2019-04-28T20:53:01.033Z,12.67
2019-04-28T20:55:29.996Z,11.73
2019-04-28T20:58:01.551Z,11.37
2019-04-28T21:00:30.497Z,11.57
2019-04-28T21:02:59.513Z,12.00
2019-04-28T21:05:28.473Z,13.10
2019-04-28T21:07:57.734Z,13.30
2019-04-28T21:10:37.208Z,13.87
2019-04-28T21:12:57.437Z,14.53
2019-04-28T21:15:26.445Z,14.60
2019-04-28T21:17:55.446Z,14.33
2019-04-28T21:20:26.845Z,13.40
2019-04-28T21:22:55.983Z,15.43
2019-04-28T21:25:24.950Z,14.60
2019-04-28T21:27:53.917Z,14.70
2019-04-28T21:30:23.063Z,14.63
2019-04-28T21:32:52.115Z,14.73
2019-04-28T21:35:24.214Z,14.60
2019-04-28T21:37:53.266Z,13.87
2019-04-28T21:40:22.493Z,12.57
2019-04-28T21:42:55.813Z,13.60
2019-04-28T21:45:42.379Z,12.43
2019-04-28T21:48:13.010Z,13.03
2019-04-28T21:50:44.626Z,12.70
2019-04-28T21:53:13.568Z,13.47
2019-04-28T21:55:42.698Z,12.40
2019-04-28T21:58:11.954Z,11.27
2019-04-28T22:00:47.080Z,11.83
2019-04-28T22:03:16.201Z,12.23
2019-04-28T22:05:45.137Z,11.70
2019-04-28T22:08:14.247Z,12.57
2019-04-28T22:10:43.300Z,11.07
2019-04-28T22:13:12.265Z,10.30
2019-04-28T22:15:41.238Z,11.33
2019-04-28T22:18:10.288Z,11.70
2019-04-28T22:20:39.271Z,10.90
2019-04-28T22:23:18.386Z,12.17
2019-04-28T22:25:41.448Z,11.70
2019-04-28T22:28:10.464Z,11.47
2019-04-28T22:30:39.498Z,13.13
2019-04-28T22:33:08.410Z,13.43
2019-04-28T22:35:37.604Z,13.93
2019-04-28T22:38:06.661Z,15.20
2019-04-28T22:40:35.711Z,16.53
2019-04-28T22:43:07.199Z,15.93
2019-04-28T22:45:36.256Z,15.97
2019-04-28T22:48:06.006Z,15.27
2019-04-28T22:50:38.609Z,16.33
2019-04-28T22:53:10.063Z,15.90
2019-04-28T22:55:44.853Z,15.20
2019-04-28T22:58:50.424Z,14.93
2019-04-28T23:01:29.429Z,14.90
2019-04-28T23:04:03.902Z,14.97
2019-04-28T23:06:32.860Z,15.47
2019-04-28T23:09:01.814Z,14.80
2019-04-28T23:11:33.767Z,14.70
2019-04-28T23:14:02.722Z,14.37
2019-04-28T23:16:31.673Z,14.33
2019-04-28T23:19:02.703Z,14.57
2019-04-28T23:21:39.516Z,14.40
2019-04-28T23:24:08.494Z,14.20
2019-04-28T23:26:37.437Z,12.73
2019-04-28T23:29:09.288Z,14.27
2019-04-28T23:31:38.251Z,15.10
2019-04-28T23:34:10.134Z,16.10
2019-04-28T23:36:41.539Z,15.53
2019-04-28T23:39:10.959Z,16.03
2019-04-28T23:41:48.755Z,17.17
2019-04-28T23:44:17.662Z,17.53
2019-04-28T23:46:57.463Z,18.03
2019-04-28T23:49:27.184Z,19.20
2019-04-28T23:52:33.922Z,18.00
2019-04-28T23:55:04.786Z,19.87
2019-04-28T23:57:33.663Z,19.83
